sensor_id;sensor_type;location;lat;lon;timestamp;pressure;altitude;pressure_sealevel;temperature;humidity
56518;BME280;42419;48.760;2.322;2023-04-07T00:00:58;100969.97;;;25.35;27.17
56518;BME280;42419;48.760;2.322;2023-04-07T00:03:23;100976.16;;;25.37;26.91
56518;BME280;42419;48.760;2.322;2023-04-07T00:05:48;100970.34;;;25.29;26.37
56518;BME280;42419;48.760;2.322;2023-04-07T00:08:14;100980.66;;;25.37;26.23
56518;BME280;42419;48.760;2.322;2023-04-07T00:10:39;100985.00;;;25.39;26.76
56518;BME280;42419;48.760;2.322;2023-04-07T00:13:05;100983.28;;;25.38;26.76
56518;BME280;42419;48.760;2.322;2023-04-07T00:15:30;100979.53;;;25.41;26.55
56518;BME280;42419;48.760;2.322;2023-04-07T00:17:55;100979.44;;;25.42;26.30
56518;BME280;42419;48.760;2.322;2023-04-07T00:20:21;100974.94;;;25.43;26.66
56518;BME280;42419;48.760;2.322;2023-04-07T00:22:47;100981.19;;;25.43;26.07
56518;BME280;42419;48.760;2.322;2023-04-07T00:25:12;100970.28;;;25.45;26.14
56518;BME280;42419;48.760;2.322;2023-04-07T00:27:37;100957.28;;;25.37;26.18
56518;BME280;42419;48.760;2.322;2023-04-07T00:30:03;100978.22;;;25.48;26.62
56518;BME280;42419;48.760;2.322;2023-04-07T00:32:28;100972.03;;;25.46;26.65
56518;BME280;42419;48.760;2.322;2023-04-07T00:34:54;100969.25;;;25.47;26.08
56518;BME280;42419;48.760;2.322;2023-04-07T00:37:19;100963.88;;;25.47;26.39
56518;BME280;42419;48.760;2.322;2023-04-07T00:39:46;100955.34;;;25.39;26.14
56518;BME280;42419;48.760;2.322;2023-04-07T00:42:11;100969.06;;;25.51;26.44
56518;BME280;42419;48.760;2.322;2023-04-07T00:44:36;100968.13;;;25.52;25.83
56518;BME280;42419;48.760;2.322;2023-04-07T00:47:02;100957.22;;;25.53;26.27
56518;BME280;42419;48.760;2.322;2023-04-07T00:49:27;100951.75;;;25.55;26.13
56518;BME280;42419;48.760;2.322;2023-04-07T00:51:54;100945.41;;;25.56;26.13
56518;BME280;42419;48.760;2.322;2023-04-07T00:54:21;100940.09;;;25.54;26.10
56518;BME280;42419;48.760;2.322;2023-04-07T00:56:47;100941.66;;;25.58;26.46
56518;BME280;42419;48.760;2.322;2023-04-07T00:59:12;100942.44;;;25.60;26.29
56518;BME280;42419;48.760;2.322;2023-04-07T01:01:44;100949.38;;;25.64;25.84
56518;BME280;42419;48.760;2.322;2023-04-07T01:04:23;100945.81;;;25.64;25.68
56518;BME280;42419;48.760;2.322;2023-04-07T01:06:53;100940.34;;;25.65;26.03
56518;BME280;42419;48.760;2.322;2023-04-07T01:09:36;100947.44;;;25.66;25.80
56518;BME280;42419;48.760;2.322;2023-04-07T01:12:22;100942.84;;;25.68;25.97
56518;BME280;42419;48.760;2.322;2023-04-07T01:14:53;100945.63;;;25.67;26.00
56518;BME280;42419;48.760;2.322;2023-04-07T01:17:20;100939.81;;;25.59;25.84
56518;BME280;42419;48.760;2.322;2023-04-07T01:19:58;100949.09;;;25.69;26.00
56518;BME280;42419;48.760;2.322;2023-04-07T01:22:32;100946.41;;;25.69;25.66
56518;BME280;42419;48.760;2.322;2023-04-07T01:27:45;100931.38;;;25.65;25.82
56518;BME280;42419;48.760;2.322;2023-04-07T01:30:13;100942.84;;;25.68;25.94
56518;BME280;42419;48.760;2.322;2023-04-07T01:32:41;100926.34;;;25.59;25.96
56518;BME280;42419;48.760;2.322;2023-04-07T01:35:12;100951.81;;;25.69;25.55
56518;BME280;42419;48.760;2.322;2023-04-07T01:37:38;100944.66;;;25.68;25.47
56518;BME280;42419;48.760;2.322;2023-04-07T01:40:04;100950.06;;;25.68;25.55
56518;BME280;42419;48.760;2.322;2023-04-07T01:42:31;100955.53;;;25.66;25.79
56518;BME280;42419;48.760;2.322;2023-04-07T01:45:00;100957.19;;;25.69;25.32
56518;BME280;42419;48.760;2.322;2023-04-07T01:47:27;100962.59;;;25.69;25.79
56518;BME280;42419;48.760;2.322;2023-04-07T01:49:56;100955.38;;;25.69;25.97
56518;BME280;42419;48.760;2.322;2023-04-07T01:52:22;100954.50;;;25.69;25.73
56518;BME280;42419;48.760;2.322;2023-04-07T01:54:48;100961.63;;;25.70;25.90
56518;BME280;42419;48.760;2.322;2023-04-07T01:57:13;100962.44;;;25.72;25.67
56518;BME280;42419;48.760;2.322;2023-04-07T01:59:39;100951.66;;;25.72;25.83
56518;BME280;42419;48.760;2.322;2023-04-07T02:02:04;100958.78;;;25.73;25.95
56518;BME280;42419;48.760;2.322;2023-04-07T02:04:34;100948.75;;;25.75;25.60
56518;BME280;42419;48.760;2.322;2023-04-07T02:07:14;100947.91;;;25.74;25.86
56518;BME280;42419;48.760;2.322;2023-04-07T02:09:43;100957.63;;;25.77;25.35
56518;BME280;42419;48.760;2.322;2023-04-07T02:12:12;100960.34;;;25.77;25.54
56518;BME280;42419;48.760;2.322;2023-04-07T02:14:38;100960.25;;;25.78;25.75
56518;BME280;42419;48.760;2.322;2023-04-07T02:17:04;100955.63;;;25.80;25.66
56518;BME280;42419;48.760;2.322;2023-04-07T02:19:31;100951.97;;;25.81;25.31
56518;BME280;42419;48.760;2.322;2023-04-07T02:22:00;100952.03;;;25.80;25.71
56518;BME280;42419;48.760;2.322;2023-04-07T02:24:26;100954.75;;;25.80;25.18
56518;BME280;42419;48.760;2.322;2023-04-07T02:26:52;100952.91;;;25.80;25.67
56518;BME280;42419;48.760;2.322;2023-04-07T02:29:17;100961.88;;;25.81;25.70
56518;BME280;42419;48.760;2.322;2023-04-07T02:31:42;100955.53;;;25.82;25.22
56518;BME280;42419;48.760;2.322;2023-04-07T02:34:07;100963.63;;;25.82;25.67
56518;BME280;42419;48.760;2.322;2023-04-07T02:36:33;100945.97;;;25.76;25.19
56518;BME280;42419;48.760;2.322;2023-04-07T02:38:58;100958.22;;;25.82;25.66
56518;BME280;42419;48.760;2.322;2023-04-07T02:41:23;100958.22;;;25.82;25.61
56518;BME280;42419;48.760;2.322;2023-04-07T02:43:50;100953.72;;;25.82;25.18
56518;BME280;42419;48.760;2.322;2023-04-07T02:46:15;100951.00;;;25.82;25.19
56518;BME280;42419;48.760;2.322;2023-04-07T02:48:40;100950.91;;;25.84;25.54
56518;BME280;42419;48.760;2.322;2023-04-07T02:51:06;100954.47;;;25.84;25.49
56518;BME280;42419;48.760;2.322;2023-04-07T02:53:31;100945.41;;;25.85;25.37
56518;BME280;42419;48.760;2.322;2023-04-07T02:55:56;100945.50;;;25.84;25.17
56518;BME280;42419;48.760;2.322;2023-04-07T02:58:22;100945.50;;;25.84;25.09
56518;BME280;42419;48.760;2.322;2023-04-07T03:00:47;100948.19;;;25.84;24.96
56518;BME280;42419;48.760;2.322;2023-04-07T03:03:13;100943.59;;;25.86;25.06
56518;BME280;42419;48.760;2.322;2023-04-07T03:05:38;100955.25;;;25.86;25.15
56518;BME280;42419;48.760;2.322;2023-04-07T03:08:04;100953.44;;;25.87;25.64
56518;BME280;42419;48.760;2.322;2023-04-07T03:10:29;100949.88;;;25.86;25.15
56518;BME280;42419;48.760;2.322;2023-04-07T03:12:55;100956.13;;;25.87;25.16
56518;BME280;42419;48.760;2.322;2023-04-07T03:15:21;100949.88;;;25.86;25.34
56518;BME280;42419;48.760;2.322;2023-04-07T03:17:46;100951.59;;;25.87;25.38
56518;BME280;42419;48.760;2.322;2023-04-07T03:20:11;100951.50;;;25.89;25.54
56518;BME280;42419;48.760;2.322;2023-04-07T03:22:37;100948.78;;;25.89;25.49
56518;BME280;42419;48.760;2.322;2023-04-07T03:25:02;100931.44;;;25.79;25.48
56518;BME280;42419;48.760;2.322;2023-04-07T03:27:28;100954.09;;;25.90;25.45
56518;BME280;42419;48.760;2.322;2023-04-07T03:29:53;100949.66;;;25.89;24.93
56518;BME280;42419;48.760;2.322;2023-04-07T03:32:18;100949.59;;;25.91;24.96
56518;BME280;42419;48.760;2.322;2023-04-07T03:34:44;100948.72;;;25.90;25.45
56518;BME280;42419;48.760;2.322;2023-04-07T03:37:09;100950.47;;;25.91;24.89
56518;BME280;42419;48.760;2.322;2023-04-07T03:39:35;100955.94;;;25.90;25.48
56518;BME280;42419;48.760;2.322;2023-04-07T03:42:02;100950.53;;;25.90;25.40
56518;BME280;42419;48.760;2.322;2023-04-07T03:44:27;100955.38;;;25.99;25.08
56518;BME280;42419;48.760;2.322;2023-04-07T03:46:53;100954.81;;;26.08;24.83
56518;BME280;42419;48.760;2.322;2023-04-07T03:49:18;100934.47;;;26.03;24.59
56518;BME280;42419;48.760;2.322;2023-04-07T03:51:43;100957.81;;;26.18;24.63
56518;BME280;42419;48.760;2.322;2023-04-07T03:54:09;100956.00;;;26.18;24.85
56518;BME280;42419;48.760;2.322;2023-04-07T03:56:34;100960.53;;;26.18;24.54
56518;BME280;42419;48.760;2.322;2023-04-07T03:59:00;100957.16;;;26.14;24.61
56518;BME280;42419;48.760;2.322;2023-04-07T04:01:25;100960.81;;;26.13;24.73
56518;BME280;42419;48.760;2.322;2023-04-07T04:03:50;100965.34;;;26.13;24.85
56518;BME280;42419;48.760;2.322;2023-04-07T04:06:16;100961.84;;;26.11;24.74
56518;BME280;42419;48.760;2.322;2023-04-07T04:08:41;100959.25;;;26.09;24.77
56518;BME280;42419;48.760;2.322;2023-04-07T04:11:06;100897.88;;;25.69;24.78
56518;BME280;42419;48.760;2.322;2023-04-07T04:13:31;100955.88;;;26.06;24.65
56518;BME280;42419;48.760;2.322;2023-04-07T04:15:57;100962.31;;;26.03;25.22
56518;BME280;42419;48.760;2.322;2023-04-07T04:18:22;100952.09;;;25.94;25.01
56518;BME280;42419;48.760;2.322;2023-04-07T04:20:47;100967.81;;;26.02;24.78
56518;BME280;42419;48.760;2.322;2023-04-07T04:23:14;100960.56;;;26.02;24.71
56518;BME280;42419;48.760;2.322;2023-04-07T04:25:39;100965.09;;;26.02;24.73
56518;BME280;42419;48.760;2.322;2023-04-07T04:28:05;100973.31;;;26.00;24.94
56518;BME280;42419;48.760;2.322;2023-04-07T04:30:30;100952.47;;;25.88;25.16
56518;BME280;42419;48.760;2.322;2023-04-07T04:32:56;100965.56;;;25.94;25.24
56518;BME280;42419;48.760;2.322;2023-04-07T04:35:21;100985.84;;;26.01;25.25
56518;BME280;42419;48.760;2.322;2023-04-07T04:37:47;100981.41;;;26.00;25.00
56518;BME280;42419;48.760;2.322;2023-04-07T04:40:12;100980.44;;;26.01;25.20
56518;BME280;42419;48.760;2.322;2023-04-07T04:42:38;100964.13;;;25.88;25.02
56518;BME280;42419;48.760;2.322;2023-04-07T04:45:04;100986.69;;;26.02;25.04
56518;BME280;42419;48.760;2.322;2023-04-07T04:47:30;100984.09;;;26.00;24.75
56518;BME280;42419;48.760;2.322;2023-04-07T04:49:58;100991.34;;;26.00;25.19
56518;BME280;42419;48.760;2.322;2023-04-07T04:52:24;100991.25;;;26.01;25.12
56518;BME280;42419;48.760;2.322;2023-04-07T04:54:49;100992.09;;;26.02;24.55
56518;BME280;42419;48.760;2.322;2023-04-07T04:57:15;100992.09;;;26.02;24.81
56518;BME280;42419;48.760;2.322;2023-04-07T04:59:40;100997.50;;;26.02;24.59
56518;BME280;42419;48.760;2.322;2023-04-07T05:02:06;100995.66;;;26.02;24.74
56518;BME280;42419;48.760;2.322;2023-04-07T05:04:32;100988.44;;;26.03;24.94
56518;BME280;42419;48.760;2.322;2023-04-07T05:06:57;100988.44;;;26.03;24.93
56518;BME280;42419;48.760;2.322;2023-04-07T05:09:22;100973.88;;;25.91;24.77
56518;BME280;42419;48.760;2.322;2023-04-07T05:11:48;101000.03;;;26.05;24.89
56518;BME280;42419;48.760;2.322;2023-04-07T05:14:13;100998.19;;;26.05;25.20
56518;BME280;42419;48.760;2.322;2023-04-07T05:16:39;100995.66;;;26.02;25.27
56518;BME280;42419;48.760;2.322;2023-04-07T05:19:04;100981.97;;;25.91;25.07
56518;BME280;42419;48.760;2.322;2023-04-07T05:21:29;101002.59;;;26.06;24.86
56518;BME280;42419;48.760;2.322;2023-04-07T05:23:55;100982.72;;;25.93;24.78
56518;BME280;42419;48.760;2.322;2023-04-07T05:26:20;101000.91;;;26.05;24.86
56518;BME280;42419;48.760;2.322;2023-04-07T05:28:46;101005.31;;;26.06;25.29
56518;BME280;42419;48.760;2.322;2023-04-07T05:31:11;101001.66;;;26.07;25.91
56518;BME280;42419;48.760;2.322;2023-04-07T05:33:36;101000.69;;;26.08;26.36
56518;BME280;42419;48.760;2.322;2023-04-07T05:36:02;101004.19;;;26.10;26.92
56518;BME280;42419;48.760;2.322;2023-04-07T05:38:27;101009.88;;;26.06;27.00
56518;BME280;42419;48.760;2.322;2023-04-07T05:40:53;101010.91;;;26.03;26.01
56518;BME280;42419;48.760;2.322;2023-04-07T05:43:18;101013.69;;;26.02;24.60
56518;BME280;42419;48.760;2.322;2023-04-07T05:45:43;101014.81;;;25.98;25.00
56518;BME280;42419;48.760;2.322;2023-04-07T05:48:08;101013.19;;;25.95;24.90
56518;BME280;42419;48.760;2.322;2023-04-07T05:50:34;100990.59;;;25.82;24.31
56518;BME280;42419;48.760;2.322;2023-04-07T05:52:59;100994.19;;;25.82;25.01
56518;BME280;42419;48.760;2.322;2023-04-07T05:55:25;101015.53;;;26.01;25.68
56518;BME280;42419;48.760;2.322;2023-04-07T05:57:50;101018.72;;;26.08;25.33
56518;BME280;42419;48.760;2.322;2023-04-07T06:00:15;101025.50;;;26.15;25.30
56518;BME280;42419;48.760;2.322;2023-04-07T06:02:41;101021.53;;;26.20;25.19
56518;BME280;42419;48.760;2.322;2023-04-07T06:05:06;101022.13;;;26.25;25.03
56518;BME280;42419;48.760;2.322;2023-04-07T06:07:32;101009.09;;;26.18;25.27
56518;BME280;42419;48.760;2.322;2023-04-07T06:09:57;101020.72;;;26.34;25.33
56518;BME280;42419;48.760;2.322;2023-04-07T06:12:22;101019.84;;;26.33;24.47
56518;BME280;42419;48.760;2.322;2023-04-07T06:14:54;101021.13;;;26.42;24.71
56518;BME280;42419;48.760;2.322;2023-04-07T06:17:20;101022.78;;;26.45;24.39
56518;BME280;42419;48.760;2.322;2023-04-07T06:19:46;101023.44;;;26.48;25.00
56518;BME280;42419;48.760;2.322;2023-04-07T06:22:11;101034.06;;;26.51;24.85
56518;BME280;42419;48.760;2.322;2023-04-07T06:24:36;101036.47;;;26.56;24.63
56518;BME280;42419;48.760;2.322;2023-04-07T06:27:02;101037.25;;;26.58;25.02
56518;BME280;42419;48.760;2.322;2023-04-07T06:29:28;101023.75;;;26.58;24.70
56518;BME280;42419;48.760;2.322;2023-04-07T06:31:54;101038.59;;;26.65;24.95
56518;BME280;42419;48.760;2.322;2023-04-07T06:34:19;101042.97;;;26.67;24.96
56518;BME280;42419;48.760;2.322;2023-04-07T06:36:45;101044.59;;;26.70;24.95
56518;BME280;42419;48.760;2.322;2023-04-07T06:39:10;101044.78;;;26.67;24.55
56518;BME280;42419;48.760;2.322;2023-04-07T06:41:35;101044.41;;;26.73;24.54
56518;BME280;42419;48.760;2.322;2023-04-07T06:44:03;101054.16;;;26.75;24.53
56518;BME280;42419;48.760;2.322;2023-04-07T06:46:28;101060.41;;;26.76;24.47
56518;BME280;42419;48.760;2.322;2023-04-07T06:48:54;101062.91;;;26.79;24.59
56518;BME280;42419;48.760;2.322;2023-04-07T06:51:20;101059.19;;;26.82;24.22
56518;BME280;42419;48.760;2.322;2023-04-07T06:53:45;101067.28;;;26.82;24.26
56518;BME280;42419;48.760;2.322;2023-04-07T06:56:12;101073.53;;;26.82;24.13
56518;BME280;42419;48.760;2.322;2023-04-07T06:58:38;101079.81;;;26.83;24.65
56518;BME280;42419;48.760;2.322;2023-04-07T07:01:04;101080.59;;;26.85;24.20
56518;BME280;42419;48.760;2.322;2023-04-07T07:03:30;101077.97;;;26.83;24.65
56518;BME280;42419;48.760;2.322;2023-04-07T07:05:57;101078.09;;;26.82;24.29
56518;BME280;42419;48.760;2.322;2023-04-07T07:08:23;101083.56;;;26.80;24.25
56518;BME280;42419;48.760;2.322;2023-04-07T07:10:49;101088.03;;;26.81;24.45
56518;BME280;42419;48.760;2.322;2023-04-07T07:13:14;101075.09;;;26.72;24.67
56518;BME280;42419;48.760;2.322;2023-04-07T07:15:40;101091.69;;;26.80;24.74
56518;BME280;42419;48.760;2.322;2023-04-07T07:18:05;101090.91;;;26.78;24.97
56518;BME280;42419;48.760;2.322;2023-04-07T07:20:30;101067.63;;;26.61;24.87
56518;BME280;42419;48.760;2.322;2023-04-07T07:22:55;101076.25;;;26.68;24.27
56518;BME280;42419;48.760;2.322;2023-04-07T07:25:22;101082.53;;;26.68;24.62
56518;BME280;42419;48.760;2.322;2023-04-07T07:27:47;101093.22;;;26.70;25.00
56518;BME280;42419;48.760;2.322;2023-04-07T07:30:18;101094.97;;;26.71;24.84
56518;BME280;42419;48.760;2.322;2023-04-07T07:32:43;101086.25;;;26.66;24.59
56518;BME280;42419;48.760;2.322;2023-04-07T07:35:08;101097.75;;;26.69;24.92
56518;BME280;42419;48.760;2.322;2023-04-07T07:37:33;101107.88;;;26.66;24.79
56518;BME280;42419;48.760;2.322;2023-04-07T07:39:59;101099.97;;;26.63;25.17
56518;BME280;42419;48.760;2.322;2023-04-07T07:42:25;101100.72;;;26.65;25.04
56518;BME280;42419;48.760;2.322;2023-04-07T07:44:51;101096.41;;;26.62;24.96
56518;BME280;42419;48.760;2.322;2023-04-07T07:47:16;101101.88;;;26.61;24.95
56518;BME280;42419;48.760;2.322;2023-04-07T07:49:41;101108.44;;;26.57;25.54
56518;BME280;42419;48.760;2.322;2023-04-07T07:52:07;101103.91;;;26.57;24.74
56518;BME280;42419;48.760;2.322;2023-04-07T07:54:32;101098.72;;;26.54;25.18
56518;BME280;42419;48.760;2.322;2023-04-07T07:56:58;101109.66;;;26.51;24.99
56518;BME280;42419;48.760;2.322;2023-04-07T07:59:23;101109.78;;;26.50;24.95
56518;BME280;42419;48.760;2.322;2023-04-07T08:01:48;101109.00;;;26.48;24.34
56518;BME280;42419;48.760;2.322;2023-04-07T08:04:14;101113.81;;;26.43;24.56
56518;BME280;42419;48.760;2.322;2023-04-07T08:06:39;101118.53;;;26.39;23.61
56518;BME280;42419;48.760;2.322;2023-04-07T08:09:06;101114.28;;;26.35;23.33
56518;BME280;42419;48.760;2.322;2023-04-07T08:11:31;101100.88;;;26.18;22.88
56518;BME280;42419;48.760;2.322;2023-04-07T08:13:56;101119.94;;;26.30;23.10
56518;BME280;42419;48.760;2.322;2023-04-07T08:16:21;101109.47;;;26.40;23.00
56518;BME280;42419;48.760;2.322;2023-04-07T08:18:47;101115.47;;;26.45;23.32
56518;BME280;42419;48.760;2.322;2023-04-07T08:21:13;101098.16;;;26.33;23.37
56518;BME280;42419;48.760;2.322;2023-04-07T08:23:38;101119.63;;;26.51;23.44
56518;BME280;42419;48.760;2.322;2023-04-07T08:26:04;101123.09;;;26.53;24.42
56518;BME280;42419;48.760;2.322;2023-04-07T08:28:29;101103.88;;;26.43;24.27
56518;BME280;42419;48.760;2.322;2023-04-07T08:30:54;101115.94;;;26.52;24.63
56518;BME280;42419;48.760;2.322;2023-04-07T08:33:21;101110.66;;;26.50;24.15
56518;BME280;42419;48.760;2.322;2023-04-07T08:35:46;101117.00;;;26.49;24.86
56518;BME280;42419;48.760;2.322;2023-04-07T08:38:11;101116.13;;;26.49;24.89
56518;BME280;42419;48.760;2.322;2023-04-07T08:40:37;101123.44;;;26.47;24.53
56518;BME280;42419;48.760;2.322;2023-04-07T08:43:07;101119.03;;;26.46;24.79
56518;BME280;42419;48.760;2.322;2023-04-07T08:45:37;101119.13;;;26.44;24.54
56518;BME280;42419;48.760;2.322;2023-04-07T08:48:09;101127.31;;;26.43;24.89
56518;BME280;42419;48.760;2.322;2023-04-07T08:50:37;101126.44;;;26.42;24.80
56518;BME280;42419;48.760;2.322;2023-04-07T08:53:05;101127.41;;;26.41;25.25
56518;BME280;42419;48.760;2.322;2023-04-07T08:55:34;101119.66;;;26.35;25.21
56518;BME280;42419;48.760;2.322;2023-04-07T08:58:00;101126.63;;;26.39;24.97
56518;BME280;42419;48.760;2.322;2023-04-07T09:00:26;101124.00;;;26.38;24.96
56518;BME280;42419;48.760;2.322;2023-04-07T09:02:51;101132.91;;;26.40;25.09
56518;BME280;42419;48.760;2.322;2023-04-07T09:05:17;101130.28;;;26.38;25.13
56518;BME280;42419;48.760;2.322;2023-04-07T09:07:42;101114.72;;;26.27;25.12
56518;BME280;42419;48.760;2.322;2023-04-07T09:10:08;101120.91;;;26.29;25.22
56518;BME280;42419;48.760;2.322;2023-04-07T09:12:34;101130.28;;;26.38;25.12
56518;BME280;42419;48.760;2.322;2023-04-07T09:14:59;101141.94;;;26.39;25.39
56518;BME280;42419;48.760;2.322;2023-04-07T09:17:25;101138.50;;;26.37;25.34
56518;BME280;42419;48.760;2.322;2023-04-07T09:19:58;101134.81;;;26.38;25.33
56518;BME280;42419;48.760;2.322;2023-04-07T09:22:38;101139.25;;;26.39;25.63
56518;BME280;42419;48.760;2.322;2023-04-07T09:27:34;101138.31;;;26.40;25.85
56518;BME280;42419;48.760;2.322;2023-04-07T09:30:10;101147.19;;;26.42;25.37
56518;BME280;42419;48.760;2.322;2023-04-07T09:32:37;101136.38;;;26.42;25.79
56518;BME280;42419;48.760;2.322;2023-04-07T09:35:06;101140.03;;;26.41;25.39
56518;BME280;42419;48.760;2.322;2023-04-07T09:37:33;101127.69;;;26.37;25.80
56518;BME280;42419;48.760;2.322;2023-04-07T09:39:58;101142.75;;;26.41;26.00
56518;BME280;42419;48.760;2.322;2023-04-07T09:42:25;101140.13;;;26.39;25.98
56518;BME280;42419;48.760;2.322;2023-04-07T09:44:51;101137.63;;;26.36;25.72
56518;BME280;42419;48.760;2.322;2023-04-07T09:47:16;101137.09;;;26.29;26.18
56518;BME280;42419;48.760;2.322;2023-04-07T09:49:50;101143.63;;;26.25;26.17
56518;BME280;42419;48.760;2.322;2023-04-07T09:52:24;101139.44;;;26.20;25.78
56518;BME280;42419;48.760;2.322;2023-04-07T09:54:51;101132.16;;;26.06;25.81
56518;BME280;42419;48.760;2.322;2023-04-07T09:57:17;101138.00;;;26.14;26.12
56518;BME280;42419;48.760;2.322;2023-04-07T09:59:43;101133.81;;;26.09;26.33
56518;BME280;42419;48.760;2.322;2023-04-07T10:02:12;101149.66;;;26.15;25.93
56518;BME280;42419;48.760;2.322;2023-04-07T10:04:37;101156.09;;;26.12;26.04
56518;BME280;42419;48.760;2.322;2023-04-07T10:07:03;101142.78;;;26.09;26.17
56518;BME280;42419;48.760;2.322;2023-04-07T10:09:29;101121.13;;;25.95;26.23
56518;BME280;42419;48.760;2.322;2023-04-07T10:11:56;101142.94;;;26.06;26.61
56518;BME280;42419;48.760;2.322;2023-04-07T10:14:30;101133.81;;;26.09;26.18
56518;BME280;42419;48.760;2.322;2023-04-07T10:16:55;101147.22;;;26.10;26.28
56518;BME280;42419;48.760;2.322;2023-04-07T10:19:21;101140.78;;;26.13;26.60
56518;BME280;42419;48.760;2.322;2023-04-07T10:21:50;101136.59;;;26.07;26.22
56518;BME280;42419;48.760;2.322;2023-04-07T10:26:57;101140.78;;;26.13;26.59
56518;BME280;42419;48.760;2.322;2023-04-07T10:29:24;101138.94;;;26.13;26.40
56518;BME280;42419;48.760;2.322;2023-04-07T10:31:51;101140.78;;;26.13;26.24
56518;BME280;42419;48.760;2.322;2023-04-07T10:34:17;101146.16;;;26.13;26.33
56518;BME280;42419;48.760;2.322;2023-04-07T10:37:10;101139.91;;;26.12;26.10
56518;BME280;42419;48.760;2.322;2023-04-07T10:39:42;101132.94;;;26.08;26.55
56518;BME280;42419;48.760;2.322;2023-04-07T10:43:01;101134.09;;;26.04;26.80
56518;BME280;42419;48.760;2.322;2023-04-07T10:48:15;101132.41;;;26.02;26.23
56518;BME280;42419;48.760;2.322;2023-04-07T10:50:41;101121.19;;;25.93;26.25
56518;BME280;42419;48.760;2.322;2023-04-07T10:53:08;101128.75;;;26.03;26.52
56518;BME280;42419;48.760;2.322;2023-04-07T10:55:41;101128.69;;;26.04;26.51
56518;BME280;42419;48.760;2.322;2023-04-07T10:58:23;101132.16;;;26.06;26.38
56518;BME280;42419;48.760;2.322;2023-04-07T11:03:37;101120.06;;;25.98;26.78
56518;BME280;42419;48.760;2.322;2023-04-07T11:06:10;101129.28;;;26.09;26.59
56518;BME280;42419;48.760;2.322;2023-04-07T11:08:40;101121.09;;;26.11;26.32
56518;BME280;42419;48.760;2.322;2023-04-07T11:11:07;101104.47;;;26.03;26.22
56518;BME280;42419;48.760;2.322;2023-04-07T11:13:59;101118.22;;;26.14;26.66
56518;BME280;42419;48.760;2.322;2023-04-07T11:16:37;101107.78;;;26.08;26.50
56518;BME280;42419;48.760;2.322;2023-04-07T11:19:03;101116.94;;;26.05;26.55
56518;BME280;42419;48.760;2.322;2023-04-07T11:21:28;101118.66;;;26.06;26.55
56518;BME280;42419;48.760;2.322;2023-04-07T11:23:54;101117.81;;;26.06;26.70
56518;BME280;42419;48.760;2.322;2023-04-07T11:26:20;101118.75;;;26.05;26.63
56518;BME280;42419;48.760;2.322;2023-04-07T11:28:46;101120.06;;;25.98;26.56
56518;BME280;42419;48.760;2.322;2023-04-07T11:31:11;101113.38;;;25.89;26.63
56518;BME280;42419;48.760;2.322;2023-04-07T11:33:38;101119.03;;;25.84;27.00
56518;BME280;42419;48.760;2.322;2023-04-07T11:36:05;101122.09;;;25.78;26.56
56518;BME280;42419;48.760;2.322;2023-04-07T11:38:35;101126.03;;;25.73;26.85
56518;BME280;42419;48.760;2.322;2023-04-07T11:41:12;101123.31;;;25.73;26.97
56518;BME280;42419;48.760;2.322;2023-04-07T11:43:38;101109.13;;;25.69;27.14
56518;BME280;42419;48.760;2.322;2023-04-07T11:46:08;101117.94;;;25.73;26.75
56518;BME280;42419;48.760;2.322;2023-04-07T11:48:34;101128.53;;;25.76;27.28
56518;BME280;42419;48.760;2.322;2023-04-07T11:51:00;101115.72;;;25.79;27.11
56518;BME280;42419;48.760;2.322;2023-04-07T11:53:31;101119.16;;;25.83;26.75
56518;BME280;42419;48.760;2.322;2023-04-07T11:56:04;101115.38;;;25.85;26.86
56518;BME280;42419;48.760;2.322;2023-04-07T11:58:31;101118.00;;;25.87;27.17
56518;BME280;42419;48.760;2.322;2023-04-07T12:01:01;101108.16;;;25.86;27.26
56518;BME280;42419;48.760;2.322;2023-04-07T12:03:34;101124.00;;;25.92;26.93
56518;BME280;42419;48.760;2.322;2023-04-07T12:06:00;101115.38;;;25.85;26.99
56518;BME280;42419;48.760;2.322;2023-04-07T12:08:42;101111.22;;;25.80;26.97
56518;BME280;42419;48.760;2.322;2023-04-07T12:11:09;101120.44;;;25.76;26.70
56518;BME280;42419;48.760;2.322;2023-04-07T12:13:35;101124.97;;;25.75;26.97
56518;BME280;42419;48.760;2.322;2023-04-07T12:16:02;101130.28;;;25.77;27.38
56518;BME280;42419;48.760;2.322;2023-04-07T12:18:28;101122.59;;;25.69;27.03
56518;BME280;42419;48.760;2.322;2023-04-07T12:20:53;101118.09;;;25.70;27.01
56518;BME280;42419;48.760;2.322;2023-04-07T12:23:18;101118.88;;;25.72;27.20
56518;BME280;42419;48.760;2.322;2023-04-07T12:25:44;101106.41;;;25.69;27.26
56518;BME280;42419;48.760;2.322;2023-04-07T12:28:09;101109.66;;;25.76;27.50
56518;BME280;42419;48.760;2.322;2023-04-07T12:30:35;101098.09;;;25.74;27.54
56518;BME280;42419;48.760;2.322;2023-04-07T12:33:00;101101.41;;;25.79;27.51
56518;BME280;42419;48.760;2.322;2023-04-07T12:35:27;101095.91;;;25.80;26.83
56518;BME280;42419;48.760;2.322;2023-04-07T12:37:53;101094.06;;;25.81;26.78
56518;BME280;42419;48.760;2.322;2023-04-07T12:40:18;101094.16;;;25.79;27.25
56518;BME280;42419;48.760;2.322;2023-04-07T12:42:44;101096.97;;;25.78;27.45
56518;BME280;42419;48.760;2.322;2023-04-07T12:45:09;101103.72;;;25.69;27.42
56518;BME280;42419;48.760;2.322;2023-04-07T12:47:35;101104.13;;;25.62;27.54
56518;BME280;42419;48.760;2.322;2023-04-07T12:50:00;101103.63;;;25.55;27.71
56518;BME280;42419;48.760;2.322;2023-04-07T12:52:26;101112.94;;;25.49;27.19
56518;BME280;42419;48.760;2.322;2023-04-07T12:54:51;101113.28;;;25.43;27.28
56518;BME280;42419;48.760;2.322;2023-04-07T12:57:17;101108.22;;;25.37;27.79
56518;BME280;42419;48.760;2.322;2023-04-07T12:59:42;101111.25;;;25.31;27.84
56518;BME280;42419;48.760;2.322;2023-04-07T13:02:08;101107.94;;;25.26;27.17